Time;durP1;ratioP1;P1;durP2;ratioP2;P2;SDS_P1;SDS_P2;PMS_P1;PMS_P2;Temp;Humidity;BMP_temperature;BMP_pressure;BME280_temperature;BME280_humidity;BME280_pressure;Samples;Min_cycle;Max_cycle;Signal;HPM_P1;HPM_P2
2021/09/24 07:47:08;;;;;;;7.30;3.78;;;;;;;;;;6149525;23;21598;-54
2021/09/24 07:49:34;;;;;;;4.32;2.90;;;;;;;;;;6114599;23;20396;-53
2021/09/24 07:52:00;;;;;;;4.00;2.88;;;;;;;;;;6094246;23;20376;-52
2021/09/24 07:54:26;;;;;;;4.10;3.08;;;;;;;;;;6093147;23;20388;-56
2021/09/24 07:56:53;;;;;;;3.88;2.78;;;;;;;;;;6119412;23;20346;-50
2021/09/24 07:59:19;;;;;;;3.45;2.53;;;;;;;;;;6121448;23;20348;-48
2021/09/24 08:01:46;;;;;;;4.65;2.88;;;;;;;;;;6122063;23;20775;-50
2021/09/24 08:04:12;;;;;;;3.97;2.65;;;;;;;;;;6120993;23;20353;-51
2021/09/24 08:06:38;;;;;;;5.22;2.90;;;;;;;;;;6120696;23;20344;-57
2021/09/24 08:09:04;;;;;;;3.65;2.50;;;;;;;;;;6120761;23;20337;-54
2021/09/24 08:11:31;;;;;;;4.30;2.70;;;;;;;;;;6094609;23;20795;-56
2021/09/24 08:13:57;;;;;;;3.40;2.40;;;;;;;;;;6120120;23;20357;-48
2021/09/24 08:16:23;;;;;;;4.90;3.25;;;;;;;;;;6121332;23;20817;-54
2021/09/24 08:18:49;;;;;;;4.05;3.15;;;;;;;;;;6121288;23;20821;-54
2021/09/24 08:21:16;;;;;;;4.80;3.10;;;;;;;;;;6121383;23;20345;-48
2021/09/24 08:23:42;;;;;;;5.88;3.63;;;;;;;;;;6121355;23;20428;-47
2021/09/24 08:26:11;;;;;;;4.63;3.58;;;;;;;;;;6094759;23;20411;-54
2021/09/24 08:28:37;;;;;;;5.32;3.90;;;;;;;;;;6121023;23;20373;-57
2021/09/24 08:31:04;;;;;;;5.73;3.77;;;;;;;;;;6095072;23;20432;-49
2021/09/24 08:33:30;;;;;;;5.45;3.70;;;;;;;;;;6120961;23;20345;-50
2021/09/24 08:35:56;;;;;;;4.85;3.42;;;;;;;;;;6094287;23;20683;-52
2021/09/24 08:38:22;;;;;;;5.10;3.60;;;;;;;;;;6120426;23;20341;-56
2021/09/24 08:40:48;;;;;;;4.72;3.60;;;;;;;;;;6120806;23;20434;-52
2021/09/24 08:43:15;;;;;;;4.60;3.30;;;;;;;;;;6120536;23;20433;-49
2021/09/24 08:45:45;;;;;;;5.47;3.55;;;;;;;;;;6094260;23;20353;-48
2021/09/24 08:48:12;;;;;;;5.40;3.50;;;;;;;;;;6120023;23;20404;-47
2021/09/24 08:50:39;;;;;;;4.82;3.60;;;;;;;;;;6120771;23;20462;-46
2021/09/24 08:53:06;;;;;;;10.00;3.83;;;;;;;;;;6119727;23;20400;-44
2021/09/24 08:55:32;;;;;;;5.05;3.10;;;;;;;;;;6120422;23;20419;-53
2021/09/24 08:57:59;;;;;;;4.80;3.00;;;;;;;;;;6120022;23;20665;-50
2021/09/24 09:00:26;;;;;;;3.70;2.67;;;;;;;;;;6094833;23;20368;-42
2021/09/24 09:02:56;;;;;;;3.10;2.60;;;;;;;;;;6094279;23;20816;-47
2021/09/24 09:05:23;;;;;;;4.07;2.25;;;;;;;;;;6119635;23;20823;-49
2021/09/24 09:07:49;;;;;;;3.30;2.10;;;;;;;;;;6119855;23;20345;-55
2021/09/24 09:10:16;;;;;;;3.05;1.90;;;;;;;;;;6093962;23;20361;-49
2021/09/24 09:12:42;;;;;;;2.42;1.80;;;;;;;;;;6093715;23;20464;-51
2021/09/24 09:15:10;;;;;;;3.42;1.90;;;;;;;;;;6094162;23;20817;-53
2021/09/24 09:17:38;;;;;;;2.78;1.70;;;;;;;;;;6120144;23;20361;-45
2021/09/24 09:20:18;;;;;;;2.97;1.63;;;;;;;;;;6119858;23;20357;-52
2021/09/24 09:23:05;;;;;;;2.40;1.60;;;;;;;;;;6119629;23;20420;-52
2021/09/24 09:25:35;;;;;;;2.70;1.55;;;;;;;;;;6120499;23;20341;-53
2021/09/24 09:28:03;;;;;;;2.92;1.40;;;;;;;;;;6121035;23;20337;-51
2021/09/24 09:30:30;;;;;;;2.80;1.80;;;;;;;;;;6094192;23;20357;-49
2021/09/24 09:33:02;;;;;;;2.30;1.48;;;;;;;;;;6119435;23;20333;-47
2021/09/24 09:35:29;;;;;;;2.35;1.58;;;;;;;;;;6093459;23;20488;-45
2021/09/24 09:37:56;;;;;;;2.33;1.55;;;;;;;;;;6119423;23;20395;-45
2021/09/24 09:40:23;;;;;;;2.78;1.70;;;;;;;;;;6119912;23;20345;-50
2021/09/24 09:42:50;;;;;;;3.05;1.77;;;;;;;;;;6118311;23;20789;-50
2021/09/24 09:45:18;;;;;;;3.17;1.77;;;;;;;;;;6119791;23;20356;-49
2021/09/24 09:47:47;;;;;;;2.60;1.80;;;;;;;;;;6120427;23;20368;-49
2021/09/24 09:50:24;;;;;;;3.63;1.83;;;;;;;;;;6122050;23;20666;-51
2021/09/24 09:52:57;;;;;;;3.80;2.20;;;;;;;;;;6121394;23;20400;-54
2021/09/24 09:55:25;;;;;;;2.35;1.50;;;;;;;;;;6121902;23;20396;-51
2021/09/24 09:57:51;;;;;;;2.78;1.60;;;;;;;;;;6121776;23;20345;-48
2021/09/24 10:00:18;;;;;;;2.47;1.70;;;;;;;;;;6122372;23;20348;-47
2021/09/24 10:02:47;;;;;;;3.22;1.70;;;;;;;;;;6122199;23;20427;-52
2021/09/24 10:05:31;;;;;;;2.67;1.88;;;;;;;;;;6122163;23;20829;-50
2021/09/24 10:07:57;;;;;;;3.13;1.60;;;;;;;;;;6121945;23;20341;-47
2021/09/24 10:10:23;;;;;;;3.13;1.60;;;;;;;;;;6094761;23;20419;-49
2021/09/24 10:12:49;;;;;;;3.80;1.63;;;;;;;;;;6119349;23;20356;-50
2021/09/24 10:15:15;;;;;;;2.67;1.70;;;;;;;;;;6093860;23;20395;-52
2021/09/24 10:17:42;;;;;;;3.10;1.50;;;;;;;;;;6121203;23;20818;-53
2021/09/24 10:20:09;;;;;;;3.00;1.48;;;;;;;;;;6121150;23;20341;-48
2021/09/24 10:22:35;;;;;;;2.33;1.30;;;;;;;;;;6121516;23;20491;-50
2021/09/24 10:25:02;;;;;;;1.83;1.30;;;;;;;;;;6121905;23;20373;-51
2021/09/24 10:27:29;;;;;;;2.10;1.38;;;;;;;;;;6121680;23;20414;-49
2021/09/24 10:29:58;;;;;;;1.83;1.30;;;;;;;;;;6121141;23;20349;-49
2021/09/24 10:32:26;;;;;;;1.70;1.25;;;;;;;;;;6121541;23;20349;-45
2021/09/24 10:34:52;;;;;;;2.20;1.42;;;;;;;;;;6120812;23;20384;-46
2021/09/24 10:37:19;;;;;;;2.78;1.42;;;;;;;;;;6120569;23;20361;-49
2021/09/24 10:39:47;;;;;;;1.90;1.30;;;;;;;;;;6121958;23;20341;-48
2021/09/24 10:42:32;;;;;;;2.17;1.30;;;;;;;;;;6120896;23;20421;-48
2021/09/24 10:45:10;;;;;;;2.05;1.40;;;;;;;;;;6121536;23;20889;-49
2021/09/24 10:47:45;;;;;;;2.40;1.40;;;;;;;;;;6119700;23;20455;-49
2021/09/24 10:50:33;;;;;;;2.28;1.58;;;;;;;;;;6120325;23;20435;-51
2021/09/24 10:53:18;;;;;;;2.00;1.40;;;;;;;;;;6119952;23;20703;-49
2021/09/24 10:55:53;;;;;;;2.33;1.50;;;;;;;;;;6120642;23;20399;-48
2021/09/24 10:58:29;;;;;;;2.00;1.40;;;;;;;;;;6120521;23;20356;-48
2021/09/24 11:01:04;;;;;;;2.60;1.60;;;;;;;;;;6120409;23;20345;-49
2021/09/24 11:03:30;;;;;;;2.20;1.45;;;;;;;;;;6094680;23;20369;-48
2021/09/24 11:06:03;;;;;;;2.42;1.60;;;;;;;;;;6120162;23;20429;-47
2021/09/24 11:08:39;;;;;;;3.25;1.85;;;;;;;;;;6121156;23;20357;-48
2021/09/24 11:11:20;;;;;;;2.23;1.70;;;;;;;;;;6120028;23;20367;-46
2021/09/24 11:13:48;;;;;;;3.47;1.70;;;;;;;;;;6121074;23;20540;-48
2021/09/24 11:16:34;;;;;;;2.85;1.70;;;;;;;;;;6119990;23;20349;-47
2021/09/24 11:19:01;;;;;;;2.83;1.58;;;;;;;;;;6104884;23;20368;-46
2021/09/24 11:21:33;;;;;;;2.90;1.40;;;;;;;;;;6119757;23;20352;-46
2021/09/24 11:24:00;;;;;;;3.50;1.60;;;;;;;;;;6119995;23;20352;-47
2021/09/24 11:26:29;;;;;;;4.80;1.60;;;;;;;;;;6118881;23;20345;-46
2021/09/24 11:29:12;;;;;;;2.80;1.50;;;;;;;;;;6119783;23;20361;-48
2021/09/24 11:31:54;;;;;;;2.60;1.40;;;;;;;;;;6120761;23;20435;-47
2021/09/24 11:34:46;;;;;;;3.42;1.60;;;;;;;;;;6119727;23;20439;-46
2021/09/24 11:37:18;;;;;;;4.82;1.60;;;;;;;;;;6121206;23;20401;-47
2021/09/24 11:39:45;;;;;;;2.55;1.40;;;;;;;;;;6120861;23;20353;-47
2021/09/24 11:42:17;;;;;;;2.80;1.40;;;;;;;;;;6121749;23;20447;-47
2021/09/24 11:44:43;;;;;;;3.00;1.33;;;;;;;;;;6120893;23;21072;-48
2021/09/24 11:47:16;;;;;;;4.35;1.48;;;;;;;;;;6121271;23;20372;-49
2021/09/24 11:49:52;;;;;;;2.80;1.40;;;;;;;;;;6120940;23;20479;-47
2021/09/24 11:52:18;;;;;;;3.05;1.50;;;;;;;;;;6120820;23;20402;-48
2021/09/24 11:54:44;;;;;;;2.17;1.30;;;;;;;;;;6120418;23;20380;-48
2021/09/24 11:57:14;;;;;;;2.33;1.27;;;;;;;;;;6120596;23;20360;-47
2021/09/24 11:59:41;;;;;;;3.73;1.40;;;;;;;;;;6120516;23;20706;-50
2021/09/24 12:02:18;;;;;;;2.35;1.40;;;;;;;;;;6094333;23;20414;-49
2021/09/24 12:04:57;;;;;;;2.72;1.40;;;;;;;;;;6120570;23;20349;-48
2021/09/24 12:07:23;;;;;;;2.70;1.30;;;;;;;;;;6121034;23;20365;-48
2021/09/24 12:09:55;;;;;;;2.50;1.38;;;;;;;;;;6094683;23;20419;-48
2021/09/24 12:12:21;;;;;;;2.90;1.20;;;;;;;;;;6120111;23;20337;-48
2021/09/24 12:14:54;;;;;;;2.78;1.23;;;;;;;;;;6121092;23;20394;-48
2021/09/24 12:17:22;;;;;;;2.72;1.25;;;;;;;;;;6120923;23;20348;-48
2021/09/24 12:19:49;;;;;;;3.47;1.30;;;;;;;;;;6120390;23;20344;-51
2021/09/24 12:22:17;;;;;;;2.40;1.20;;;;;;;;;;6120469;23;20389;-47
2021/09/24 12:24:46;;;;;;;3.10;1.40;;;;;;;;;;6094552;23;20832;-47
2021/09/24 12:27:15;;;;;;;2.80;1.15;;;;;;;;;;6120074;23;20345;-46
2021/09/24 12:29:42;;;;;;;2.38;1.30;;;;;;;;;;6119757;23;20395;-46
2021/09/24 12:32:13;;;;;;;3.13;1.40;;;;;;;;;;6120704;23;20437;-47
2021/09/24 12:34:58;;;;;;;2.85;1.33;;;;;;;;;;6119483;23;20459;-48
2021/09/24 12:37:37;;;;;;;2.25;1.30;;;;;;;;;;6119542;23;20736;-48
2021/09/24 12:40:07;;;;;;;2.15;1.13;;;;;;;;;;6119378;23;20353;-47
2021/09/24 12:42:35;;;;;;;2.35;1.38;;;;;;;;;;6118511;23;20348;-47
2021/09/24 12:45:01;;;;;;;2.70;1.20;;;;;;;;;;6117743;23;20364;-48
2021/09/24 12:47:31;;;;;;;2.50;1.38;;;;;;;;;;6118104;23;20389;-48
2021/09/24 12:49:59;;;;;;;2.00;1.20;;;;;;;;;;6119874;23;20456;-50
2021/09/24 12:52:27;;;;;;;2.53;1.17;;;;;;;;;;6120295;23;20365;-48
2021/09/24 12:54:53;;;;;;;2.40;1.30;;;;;;;;;;6120447;23;20463;-47
2021/09/24 12:57:20;;;;;;;2.20;1.30;;;;;;;;;;6120417;23;20452;-46
2021/09/24 12:59:49;;;;;;;2.78;1.60;;;;;;;;;;6094220;23;20349;-54
2021/09/24 13:02:16;;;;;;;2.80;1.50;;;;;;;;;;6120403;23;20345;-52
2021/09/24 13:04:46;;;;;;;2.15;1.38;;;;;;;;;;6119495;23;20425;-49
2021/09/24 13:07:18;;;;;;;2.45;1.35;;;;;;;;;;6120228;23;20340;-52
2021/09/24 13:09:45;;;;;;;2.00;1.40;;;;;;;;;;6119943;23;20353;-52
2021/09/24 13:12:12;;;;;;;1.90;1.30;;;;;;;;;;6119963;23;20373;-51
2021/09/24 13:14:39;;;;;;;2.55;1.45;;;;;;;;;;6120251;23;20381;-48
2021/09/24 13:17:05;;;;;;;3.13;1.60;;;;;;;;;;6120507;23;20376;-50
2021/09/24 13:19:31;;;;;;;2.22;1.40;;;;;;;;;;6120464;23;20337;-50
2021/09/24 13:21:57;;;;;;;2.53;1.48;;;;;;;;;;6120922;23;20345;-48
2021/09/24 13:24:23;;;;;;;1.83;1.35;;;;;;;;;;6096776;23;20364;-48
2021/09/24 13:26:52;;;;;;;2.60;1.40;;;;;;;;;;6096612;23;20356;-52
2021/09/24 13:29:18;;;;;;;2.45;1.45;;;;;;;;;;6121418;23;20376;-53
2021/09/24 13:31:46;;;;;;;3.00;1.30;;;;;;;;;;6122195;23;20429;-54
2021/09/24 13:34:15;;;;;;;2.35;1.20;;;;;;;;;;6123514;23;20341;-51
2021/09/24 13:36:41;;;;;;;2.10;1.33;;;;;;;;;;6123132;23;20415;-53
2021/09/24 13:39:07;;;;;;;2.90;1.50;;;;;;;;;;6122603;23;20336;-56
2021/09/24 13:41:33;;;;;;;2.00;1.30;;;;;;;;;;6123135;23;20341;-55
2021/09/24 13:43:59;;;;;;;2.78;1.20;;;;;;;;;;6097126;23;20340;-53
2021/09/24 13:46:25;;;;;;;1.80;1.30;;;;;;;;;;6122887;23;20423;-55
2021/09/24 13:48:52;;;;;;;2.17;1.30;;;;;;;;;;6122639;23;20376;-53
2021/09/24 13:51:18;;;;;;;2.30;1.20;;;;;;;;;;6122787;23;20359;-49
2021/09/24 13:53:45;;;;;;;2.20;1.23;;;;;;;;;;6123250;23;20365;-51
2021/09/24 13:56:13;;;;;;;1.92;1.17;;;;;;;;;;6122111;23;20472;-52
2021/09/24 13:58:39;;;;;;;2.47;1.15;;;;;;;;;;6122360;23;20414;-53
2021/09/24 14:01:05;;;;;;;1.90;1.10;;;;;;;;;;6123209;23;20345;-52
2021/09/24 14:03:31;;;;;;;3.47;1.20;;;;;;;;;;6122418;23;20786;-55
2021/09/24 14:05:57;;;;;;;2.75;1.17;;;;;;;;;;6122879;23;20631;-55
2021/09/24 14:08:23;;;;;;;1.83;1.10;;;;;;;;;;6122784;23;20435;-53
2021/09/24 14:10:50;;;;;;;2.20;1.17;;;;;;;;;;6123185;23;20345;-49
2021/09/24 14:13:16;;;;;;;1.92;1.10;;;;;;;;;;6121881;23;20784;-51
2021/09/24 14:15:42;;;;;;;3.03;1.30;;;;;;;;;;6122280;23;20428;-51
2021/09/24 14:18:11;;;;;;;2.58;1.20;;;;;;;;;;6123202;23;20380;-53
2021/09/24 14:20:37;;;;;;;2.20;1.20;;;;;;;;;;6122342;23;20403;-52
2021/09/24 14:23:04;;;;;;;2.13;1.17;;;;;;;;;;6122913;23;20341;-54
2021/09/24 14:25:30;;;;;;;1.80;1.00;;;;;;;;;;6122665;23;20349;-52
2021/09/24 14:27:56;;;;;;;2.03;1.20;;;;;;;;;;6121774;23;20431;-54
2021/09/24 14:30:23;;;;;;;2.10;1.00;;;;;;;;;;6122412;23;20390;-52
2021/09/24 14:32:49;;;;;;;1.92;1.02;;;;;;;;;;6122391;23;20344;-49
2021/09/24 14:35:16;;;;;;;2.15;1.10;;;;;;;;;;6094128;23;20399;-49
2021/09/24 14:37:49;;;;;;;2.20;1.55;;;;;;;;;;6121869;23;20372;-52
2021/09/24 14:40:16;;;;;;;2.10;1.50;;;;;;;;;;6120231;23;20352;-53
2021/09/24 14:42:44;;;;;;;2.30;1.60;;;;;;;;;;6121050;23;20360;-50
2021/09/24 14:45:11;;;;;;;2.20;1.70;;;;;;;;;;6121994;23;20349;-55
2021/09/24 14:47:37;;;;;;;2.85;1.90;;;;;;;;;;6095662;23;20635;-49
2021/09/24 14:50:04;;;;;;;2.58;1.60;;;;;;;;;;6121672;23;20385;-51
2021/09/24 14:52:30;;;;;;;2.65;1.90;;;;;;;;;;6122814;23;20871;-54
2021/09/24 14:54:56;;;;;;;2.22;1.77;;;;;;;;;;6123096;23;20864;-54
2021/09/24 14:57:22;;;;;;;2.95;1.90;;;;;;;;;;6122055;23;20357;-52
2021/09/24 14:59:51;;;;;;;2.17;1.70;;;;;;;;;;6123064;23;20416;-55
2021/09/24 15:02:17;;;;;;;2.83;1.65;;;;;;;;;;6122997;23;20345;-50
2021/09/24 15:04:46;;;;;;;2.50;1.85;;;;;;;;;;6122814;23;20540;-56
2021/09/24 15:07:12;;;;;;;2.17;1.70;;;;;;;;;;6122228;23;20345;-56
2021/09/24 15:09:39;;;;;;;2.50;1.80;;;;;;;;;;6122601;23;20801;-50
2021/09/24 15:12:05;;;;;;;2.20;1.60;;;;;;;;;;6122034;23;20352;-53
2021/09/24 15:14:35;;;;;;;2.70;1.80;;;;;;;;;;6120925;23;20368;-54
2021/09/24 15:17:01;;;;;;;2.40;1.70;;;;;;;;;;6119661;23;20802;-53
2021/09/24 15:19:27;;;;;;;2.55;1.60;;;;;;;;;;6121471;23;20356;-54
2021/09/24 15:21:53;;;;;;;2.45;1.67;;;;;;;;;;6120561;23;20808;-56
2021/09/24 15:24:19;;;;;;;2.20;1.65;;;;;;;;;;6121384;23;20396;-53
2021/09/24 15:26:46;;;;;;;4.00;1.60;;;;;;;;;;6121183;23;20420;-52
2021/09/24 15:29:12;;;;;;;2.10;1.60;;;;;;;;;;6122169;23;20357;-51
2021/09/24 15:31:39;;;;;;;2.50;1.60;;;;;;;;;;6095743;23;20810;-55
2021/09/24 15:34:05;;;;;;;2.05;1.40;;;;;;;;;;6121178;23;20424;-52
2021/09/24 15:36:31;;;;;;;2.33;1.60;;;;;;;;;;6121779;23;20723;-55
2021/09/24 15:39:00;;;;;;;2.33;1.52;;;;;;;;;;6120545;23;20424;-49
2021/09/24 15:41:26;;;;;;;5.25;4.15;;;;;;;;;;6119824;23;20802;-52
2021/09/24 15:43:52;;;;;;;4.10;3.65;;;;;;;;;;6120127;23;20345;-49
2021/09/24 15:46:22;;;;;;;4.50;3.45;;;;;;;;;;6143453;23;20357;-49
2021/09/24 15:48:48;;;;;;;5.10;3.50;;;;;;;;;;6116596;23;20389;-58
2021/09/24 15:51:14;;;;;;;4.28;3.72;;;;;;;;;;6120391;23;20789;-48
2021/09/24 15:53:40;;;;;;;4.05;3.13;;;;;;;;;;6119977;23;20380;-48
2021/09/24 15:56:07;;;;;;;3.25;2.70;;;;;;;;;;6093515;23;20389;-49
2021/09/24 15:58:33;;;;;;;3.67;2.83;;;;;;;;;;6117119;23;20348;-49
2021/09/24 16:00:59;;;;;;;3.60;2.83;;;;;;;;;;6118200;23;20349;-50
2021/09/24 16:03:25;;;;;;;3.20;2.40;;;;;;;;;;6118194;23;20352;-50
2021/09/24 16:05:51;;;;;;;3.70;2.40;;;;;;;;;;6117250;23;20347;-52
2021/09/24 16:08:17;;;;;;;3.00;2.30;;;;;;;;;;6118468;23;20345;-48
2021/09/24 16:10:45;;;;;;;3.35;2.10;;;;;;;;;;6118530;23;20679;-52
2021/09/24 16:13:11;;;;;;;2.95;2.15;;;;;;;;;;6117645;23;20871;-54
2021/09/24 16:15:37;;;;;;;2.60;2.10;;;;;;;;;;6120003;23;20465;-53
2021/09/24 16:18:04;;;;;;;3.10;1.80;;;;;;;;;;6120271;23;20348;-50
2021/09/24 16:20:30;;;;;;;2.40;1.70;;;;;;;;;;6119822;23;20806;-52
2021/09/24 16:22:56;;;;;;;2.78;1.90;;;;;;;;;;6120313;23;20349;-50
2021/09/24 16:25:22;;;;;;;2.50;1.90;;;;;;;;;;6119800;23;20412;-50
2021/09/24 16:27:49;;;;;;;3.20;1.90;;;;;;;;;;6120269;23;20349;-49
2021/09/24 16:30:16;;;;;;;2.63;1.90;;;;;;;;;;6118929;23;20404;-49
2021/09/24 16:32:42;;;;;;;2.20;1.80;;;;;;;;;;6119005;23;20345;-51
2021/09/24 16:35:14;;;;;;;2.70;1.80;;;;;;;;;;6119238;23;20439;-52
2021/09/24 16:37:41;;;;;;;2.60;1.60;;;;;;;;;;6118735;23;20345;-50
2021/09/24 16:40:07;;;;;;;2.22;1.50;;;;;;;;;;6119353;23;20416;-48
2021/09/24 16:42:34;;;;;;;2.40;1.60;;;;;;;;;;6119563;23;20341;-49
2021/09/24 16:45:03;;;;;;;2.13;1.60;;;;;;;;;;6120437;23;20719;-52
2021/09/24 16:47:32;;;;;;;2.35;1.65;;;;;;;;;;6094390;23;20508;-49
2021/09/24 16:50:02;;;;;;;2.20;1.60;;;;;;;;;;6120998;23;20432;-49
2021/09/24 16:52:28;;;;;;;2.22;1.70;;;;;;;;;;6121137;23;20352;-63
2021/09/24 16:54:54;;;;;;;3.58;1.80;;;;;;;;;;6120544;23;20447;-55
2021/09/24 16:57:21;;;;;;;2.53;1.67;;;;;;;;;;6120712;23;20347;-57
2021/09/24 16:59:47;;;;;;;2.80;2.00;;;;;;;;;;6121047;23;20728;-53
2021/09/24 17:02:15;;;;;;;4.22;2.30;;;;;;;;;;6095327;23;20361;-52
2021/09/24 17:04:41;;;;;;;3.30;2.50;;;;;;;;;;6121517;23;20359;-52
2021/09/24 17:07:08;;;;;;;2.92;2.28;;;;;;;;;;6120734;23;20403;-50
2021/09/24 17:09:34;;;;;;;3.50;2.58;;;;;;;;;;6094406;23;20437;-51
2021/09/24 17:12:00;;;;;;;2.93;2.40;;;;;;;;;;6121281;23;20340;-51
2021/09/24 17:14:26;;;;;;;3.13;2.38;;;;;;;;;;6121214;23;20390;-52
2021/09/24 17:16:54;;;;;;;2.70;2.40;;;;;;;;;;6094731;23;20663;-51
2021/09/24 17:19:23;;;;;;;3.10;2.00;;;;;;;;;;6109024;23;20341;-55
2021/09/24 17:21:50;;;;;;;3.20;2.30;;;;;;;;;;6120625;23;20404;-50
2021/09/24 17:24:16;;;;;;;2.70;2.20;;;;;;;;;;6121133;23;20344;-51
2021/09/24 17:26:42;;;;;;;2.57;2.37;;;;;;;;;;6119436;23;20643;-53
2021/09/24 17:29:08;;;;;;;2.50;2.10;;;;;;;;;;6120809;23;20345;-52
2021/09/24 17:31:34;;;;;;;2.60;2.20;;;;;;;;;;6121231;23;20341;-53
2021/09/24 17:34:00;;;;;;;2.60;2.10;;;;;;;;;;6120710;23;20408;-52
2021/09/24 17:36:27;;;;;;;2.50;2.00;;;;;;;;;;6120570;23;20794;-52
2021/09/24 17:38:53;;;;;;;3.25;2.10;;;;;;;;;;6120189;23;20348;-52
2021/09/24 17:41:21;;;;;;;2.55;2.03;;;;;;;;;;6120869;23;20341;-50
2021/09/24 17:43:48;;;;;;;2.55;2.13;;;;;;;;;;6119794;23;20351;-53
2021/09/24 17:46:14;;;;;;;3.03;2.00;;;;;;;;;;6094328;23;20361;-51
2021/09/24 17:48:42;;;;;;;2.80;2.27;;;;;;;;;;6120626;23;20836;-52
2021/09/24 17:51:10;;;;;;;2.67;2.20;;;;;;;;;;6121038;23;20357;-52
2021/09/24 17:53:36;;;;;;;2.80;2.20;;;;;;;;;;6120376;23;20439;-52
2021/09/24 17:56:03;;;;;;;2.63;2.30;;;;;;;;;;6120452;23;20395;-51
2021/09/24 17:58:29;;;;;;;3.22;2.30;;;;;;;;;;6120921;23;20360;-51
2021/09/24 18:00:55;;;;;;;2.65;2.30;;;;;;;;;;6121009;23;20345;-52
2021/09/24 18:03:23;;;;;;;2.50;2.10;;;;;;;;;;6121045;23;20345;-52
2021/09/24 18:05:50;;;;;;;2.47;2.10;;;;;;;;;;6095783;23;20800;-54
2021/09/24 18:08:16;;;;;;;2.65;2.30;;;;;;;;;;6120878;23;20515;-53
2021/09/24 18:10:42;;;;;;;2.60;2.20;;;;;;;;;;6122099;23;20341;-53
2021/09/24 18:13:08;;;;;;;2.50;1.95;;;;;;;;;;6123184;23;20362;-54
2021/09/24 18:15:34;;;;;;;2.58;2.22;;;;;;;;;;6122159;23;20783;-53
2021/09/24 18:18:01;;;;;;;3.53;2.00;;;;;;;;;;6096587;23;20356;-51
2021/09/24 18:20:29;;;;;;;2.50;1.98;;;;;;;;;;6122383;23;20638;-52
2021/09/24 18:22:57;;;;;;;2.42;1.85;;;;;;;;;;6096150;23;20431;-53
2021/09/24 18:25:23;;;;;;;2.67;2.27;;;;;;;;;;6122939;23;20404;-54
2021/09/24 18:27:49;;;;;;;2.35;2.05;;;;;;;;;;6122702;23;20356;-51
2021/09/24 18:30:16;;;;;;;2.13;1.88;;;;;;;;;;6122819;23;20410;-51
2021/09/24 18:32:42;;;;;;;2.58;2.00;;;;;;;;;;6122714;23;20361;-51
2021/09/24 18:35:08;;;;;;;2.38;2.10;;;;;;;;;;6122488;23;20384;-51
2021/09/24 18:37:35;;;;;;;2.67;2.20;;;;;;;;;;6122418;23;20395;-53
2021/09/24 18:40:02;;;;;;;2.10;1.90;;;;;;;;;;6122480;23;20384;-52
2021/09/24 18:42:30;;;;;;;2.30;1.90;;;;;;;;;;6122443;23;20375;-51
2021/09/24 18:44:56;;;;;;;2.60;1.90;;;;;;;;;;6122243;23;20381;-50
2021/09/24 18:47:25;;;;;;;2.85;2.20;;;;;;;;;;6122320;23;20349;-52
2021/09/24 18:49:55;;;;;;;2.20;2.00;;;;;;;;;;6122360;23;21042;-53
2021/09/24 18:52:24;;;;;;;2.35;2.00;;;;;;;;;;6110972;23;20360;-54
2021/09/24 18:54:50;;;;;;;3.38;2.00;;;;;;;;;;6121379;23;20369;-54
2021/09/24 18:57:16;;;;;;;2.80;2.00;;;;;;;;;;6121844;23;20363;-49
2021/09/24 18:59:42;;;;;;;2.67;2.10;;;;;;;;;;6122582;23;20340;-52
2021/09/24 19:02:08;;;;;;;3.08;2.20;;;;;;;;;;6121531;23;20409;-58
2021/09/24 19:04:35;;;;;;;2.20;2.00;;;;;;;;;;6144818;23;20813;-54
2021/09/24 19:07:01;;;;;;;2.67;2.00;;;;;;;;;;6122116;23;20723;-54
2021/09/24 19:09:30;;;;;;;2.47;1.88;;;;;;;;;;6121991;23;20363;-53
2021/09/24 19:11:56;;;;;;;2.58;1.98;;;;;;;;;;6122161;23;20805;-55
2021/09/24 19:14:25;;;;;;;2.30;2.00;;;;;;;;;;6121955;23;20810;-52
2021/09/24 19:16:53;;;;;;;2.15;1.85;;;;;;;;;;6145200;23;20361;-50
2021/09/24 19:19:19;;;;;;;2.15;1.92;;;;;;;;;;6121882;23;20344;-53
2021/09/24 19:21:46;;;;;;;2.33;1.92;;;;;;;;;;6122042;23;20352;-52
2021/09/24 19:24:12;;;;;;;2.15;1.80;;;;;;;;;;6122146;23;20345;-50
2021/09/24 19:26:40;;;;;;;2.55;2.00;;;;;;;;;;6122467;23;20853;-53
2021/09/24 19:29:07;;;;;;;2.25;2.03;;;;;;;;;;6121980;23;20340;-52
2021/09/24 19:31:33;;;;;;;2.47;1.80;;;;;;;;;;6121655;23;20379;-53
2021/09/24 19:33:59;;;;;;;2.20;1.90;;;;;;;;;;6121658;23;20341;-53
2021/09/24 19:36:25;;;;;;;2.20;1.80;;;;;;;;;;6121388;23;20388;-51
2021/09/24 19:38:52;;;;;;;2.45;1.90;;;;;;;;;;6144261;23;20430;-52
2021/09/24 19:41:19;;;;;;;3.58;2.22;;;;;;;;;;6121200;23;20554;-48
2021/09/24 19:43:50;;;;;;;3.10;2.00;;;;;;;;;;6122027;23;20337;-52
2021/09/24 19:46:17;;;;;;;3.13;2.05;;;;;;;;;;6121572;23;20340;-49
2021/09/24 19:48:43;;;;;;;2.83;2.08;;;;;;;;;;6121457;23;20488;-50
2021/09/24 19:51:09;;;;;;;2.88;2.00;;;;;;;;;;6143535;23;20365;-50
2021/09/24 19:53:35;;;;;;;3.10;2.08;;;;;;;;;;6143830;23;20843;-53
2021/09/24 19:56:01;;;;;;;4.47;2.30;;;;;;;;;;6143745;23;20548;-49
2021/09/24 19:58:27;;;;;;;3.60;2.20;;;;;;;;;;6120214;23;20338;-48
2021/09/24 20:00:53;;;;;;;4.20;2.45;;;;;;;;;;6120210;23;20384;-50
2021/09/24 20:03:19;;;;;;;3.42;2.20;;;;;;;;;;6120299;23;20349;-48
2021/09/24 20:05:46;;;;;;;3.40;2.35;;;;;;;;;;6120475;23;20341;-49
2021/09/24 20:08:12;;;;;;;3.45;2.28;;;;;;;;;;6120731;23;20360;-49
2021/09/24 20:10:38;;;;;;;3.08;2.15;;;;;;;;;;6120480;23;20341;-49
2021/09/24 20:13:04;;;;;;;4.20;2.40;;;;;;;;;;6120239;23;20361;-48
2021/09/24 20:15:30;;;;;;;2.83;1.83;;;;;;;;;;6120243;23;20387;-49
2021/09/24 20:17:56;;;;;;;3.63;2.08;;;;;;;;;;6120775;23;20337;-49
2021/09/24 20:20:23;;;;;;;3.30;1.95;;;;;;;;;;6120808;23;20355;-49
2021/09/24 20:22:50;;;;;;;3.65;1.95;;;;;;;;;;6120602;23;20798;-50
2021/09/24 20:25:16;;;;;;;2.60;1.80;;;;;;;;;;6121144;23;20345;-48
2021/09/24 20:27:42;;;;;;;3.17;1.80;;;;;;;;;;6121342;23;20399;-49
2021/09/24 20:30:09;;;;;;;5.88;1.88;;;;;;;;;;6121149;23;20345;-49
2021/09/24 20:32:35;;;;;;;3.95;2.00;;;;;;;;;;6120898;23;20348;-45
2021/09/24 20:35:01;;;;;;;3.75;2.00;;;;;;;;;;6121126;23;20395;-49
2021/09/24 20:37:28;;;;;;;2.75;1.75;;;;;;;;;;6144348;23;20365;-45
2021/09/24 20:39:54;;;;;;;3.33;2.17;;;;;;;;;;6121506;23;20340;-51
2021/09/24 20:42:20;;;;;;;4.03;1.80;;;;;;;;;;6121030;23;20404;-48
2021/09/24 20:44:46;;;;;;;3.78;2.10;;;;;;;;;;6121119;23;20857;-47
2021/09/24 20:47:13;;;;;;;3.22;2.15;;;;;;;;;;6142789;23;20360;-47
2021/09/24 20:49:39;;;;;;;3.45;2.40;;;;;;;;;;6120168;23;20843;-48
2021/09/24 20:52:06;;;;;;;4.05;2.40;;;;;;;;;;6142927;23;20390;-48
2021/09/24 20:54:32;;;;;;;3.28;2.20;;;;;;;;;;6119847;23;20467;-47
2021/09/24 20:56:58;;;;;;;3.83;2.45;;;;;;;;;;6143006;23;20820;-48
2021/09/24 20:59:24;;;;;;;4.07;2.47;;;;;;;;;;6119589;23;20416;-51
2021/09/24 21:01:50;;;;;;;3.75;2.40;;;;;;;;;;6142850;23;20352;-47
2021/09/24 21:04:17;;;;;;;3.15;2.30;;;;;;;;;;6119916;23;21057;-49
2021/09/24 21:06:43;;;;;;;3.35;2.20;;;;;;;;;;6120016;23;20341;-48
2021/09/24 21:09:09;;;;;;;4.10;2.20;;;;;;;;;;6120483;23;20366;-49
2021/09/24 21:11:35;;;;;;;3.85;2.10;;;;;;;;;;6120362;23;20675;-49
2021/09/24 21:14:02;;;;;;;3.08;2.17;;;;;;;;;;6119516;23;20341;-46
2021/09/24 21:16:28;;;;;;;3.20;2.20;;;;;;;;;;6121017;23;20837;-49
2021/09/24 21:18:54;;;;;;;3.33;2.35;;;;;;;;;;6120656;23;20795;-48
